ホワイトホース の空港の天気 - METARとTAF

ホワイトホース国際空港 ( CYXY / YXY ) - カナダ ユーコン準州ホワイトホース
飛行場実況気象(Metar)
観測時間05/26 15:00 PDT (05/26 22:00 UTC)
風向・風速南西 4m/s
視程10km以上
天気現象
全天の8割程度の雲 雲底高度 2040m
全天の8割程度の雲 雲底高度 6710m
気温11℃
湿度32%
気圧1019hPa
METARCYXY 262200Z 22008KT 170V250 40SM BKN067 BKN220 11/M05 A3002 RMK AC6CI1 SLP190 DENSITY ALT 2400FT
過去の天気等 Google飛行場航空写真 Wunderground天気予報

過去48時間のMETAR

飛行場予報(TAF)
発表時間: 5/26 10:38 PDT (5/26 17:38 UTC)
予報対象時間: 26日11時 PDT ~ 27日11時 PDT
風向・風速不定 2m/s
視程10km以上
全天の4割程度の雲 雲底高度 1830m
全天の8割程度の雲 雲底高度 6400m
26日11時 PDT ~ 27日1時 PDT に一時的に
全天の8割程度の雲 雲底高度 1830m
26日11時 PDT ~ 26日13時 PDT に徐々に
風向・風速南 5m/s
27日1時 PDT から
風向・風速南 6m/s
視程10km以上
天気現象弱いしゅう雨
全天の8割程度の雲 雲底高度 2440m
全天の8割程度の雲 雲底高度 3960m
27日5時 PDT から
風向・風速不定 2m/s
視程10km以上
全天の8割程度の雲 雲底高度 910m
27日5時 PDT ~ 27日11時 PDT に一時的に
視程10km以上
天気現象弱い雨
TAF CYXY 261738Z 2618/2718 VRB03KT P6SM SCT060 BKN210
TEMPO 2618/2708 BKN060
BECMG 2618/2620 18010KT
FM270800 19012KT P6SM -SHRA BKN080 BKN130
FM271200 VRB03KT P6SM BKN030
TEMPO 2712/2718 P6SM -RA RMK NXT FCST BY 270000Z